Time;durP1;ratioP1;P1;durP2;ratioP2;P2;SDS_P1;SDS_P2;PMS_P1;PMS_P2;Temp;Humidity;BMP_temperature;BMP_pressure;BME280_temperature;BME280_humidity;BME280_pressure;Samples;Min_cycle;Max_cycle;Signal;HPM_P1;HPM_P2
2024/01/28 00:00:17;;;;;;;61.27;56.60;;;;;;;2.24;100.00;103330.66;4941205;29;20465;-36
2024/01/28 00:02:47;;;;;;;61.60;56.70;;;;;;;2.21;100.00;103328.19;4943029;29;21137;-36
2024/01/28 00:05:15;;;;;;;64.10;59.13;;;;;;;2.21;100.00;103332.63;4942705;29;20472;-37
2024/01/28 00:07:43;;;;;;;64.50;58.50;;;;;;;2.20;100.00;103331.75;4948083;28;20513;-35
2024/01/28 00:10:12;;;;;;;65.03;59.50;;;;;;;2.20;100.00;103333.53;4942112;28;20542;-36
2024/01/28 00:12:39;;;;;;;63.60;58.47;;;;;;;2.18;100.00;103344.13;4945079;28;20954;-35
2024/01/28 00:15:10;;;;;;;62.20;56.40;;;;;;;2.17;100.00;103334.56;4947715;28;20436;-38
2024/01/28 00:17:38;;;;;;;63.03;57.63;;;;;;;2.16;100.00;103339.88;4948643;28;20456;-35
2024/01/28 00:20:09;;;;;;;62.60;57.33;;;;;;;2.15;100.00;103336.38;4946010;28;20491;-37
2024/01/28 00:22:37;;;;;;;63.83;58.57;;;;;;;2.16;100.00;103331.97;4938382;28;20441;-35
2024/01/28 00:25:05;;;;;;;65.30;60.40;;;;;;;2.16;100.00;103334.63;4939493;29;20522;-36
2024/01/28 00:27:33;;;;;;;64.87;59.87;;;;;;;2.16;100.00;103331.97;4941379;28;20459;-35
2024/01/28 00:30:01;;;;;;;65.50;59.87;;;;;;;2.15;100.00;103341.66;4949153;28;21052;-36
2024/01/28 00:32:29;;;;;;;68.20;62.80;;;;;;;2.13;100.00;103334.78;4946441;29;20445;-36
2024/01/28 00:34:57;;;;;;;63.17;58.50;;;;;;;2.11;100.00;103334.88;4951851;29;20467;-38
2024/01/28 00:37:26;;;;;;;64.20;58.87;;;;;;;2.11;100.00;103334.00;4954141;28;20459;-35
2024/01/28 00:39:54;;;;;;;66.43;61.40;;;;;;;2.09;100.00;103325.34;4948195;28;20848;-38
2024/01/28 00:42:23;;;;;;;65.43;60.67;;;;;;;2.07;100.00;103330.69;4943724;29;20451;-36
2024/01/28 00:44:51;;;;;;;65.20;59.80;;;;;;;2.04;100.00;103327.34;4941529;29;20472;-36
2024/01/28 00:47:19;;;;;;;66.37;60.07;;;;;;;2.03;100.00;103325.66;4952254;29;20470;-36
2024/01/28 00:49:47;;;;;;;65.23;59.90;;;;;;;2.01;100.00;103317.84;4948778;28;21008;-36
2024/01/28 00:52:15;;;;;;;66.23;60.07;;;;;;;2.01;100.00;103309.06;4943794;28;20936;-36
2024/01/28 00:54:44;;;;;;;66.30;61.20;;;;;;;1.99;100.00;103309.19;4951402;29;20526;-36
2024/01/28 00:57:12;;;;;;;66.83;60.80;;;;;;;1.97;100.00;103302.28;4948402;28;20464;-37
2024/01/28 00:59:40;;;;;;;66.90;61.60;;;;;;;1.94;100.00;103307.72;4931312;28;20461;-36
2024/01/28 01:02:08;;;;;;;67.73;62.03;;;;;;;1.92;100.00;103299.03;4943007;28;20530;-36
2024/01/28 01:04:36;;;;;;;65.47;59.70;;;;;;;1.89;100.00;103299.19;4950820;29;20560;-36
2024/01/28 01:07:04;;;;;;;68.20;62.50;;;;;;;1.85;100.00;103297.66;4992531;23;20459;-40
2024/01/28 01:09:32;;;;;;;67.87;62.07;;;;;;;1.83;100.00;103289.81;4940440;28;21001;-40
2024/01/28 01:12:02;;;;;;;70.67;63.87;;;;;;;1.81;100.00;103286.44;4948013;29;20455;-43
2024/01/28 01:14:35;;;;;;;68.87;62.50;;;;;;;1.80;100.00;103294.38;4941447;29;20441;-42
2024/01/28 01:17:03;;;;;;;64.37;59.67;;;;;;;1.79;100.00;103295.34;4934797;29;20961;-41
2024/01/28 01:19:31;;;;;;;68.57;62.80;;;;;;;1.77;100.00;103297.16;4933792;28;20559;-41
2024/01/28 01:22:01;;;;;;;64.80;59.40;;;;;;;1.76;100.00;103298.13;4934702;29;20508;-43
2024/01/28 01:24:29;;;;;;;64.40;59.03;;;;;;;1.76;100.00;103298.13;4934620;29;20433;-40
2024/01/28 01:26:57;;;;;;;68.00;62.33;;;;;;;1.74;100.00;103286.81;4935654;29;20436;-42
2024/01/28 01:29:26;;;;;;;66.77;60.70;;;;;;;1.75;100.00;103296.41;4934663;28;20480;-42
2024/01/28 01:31:55;;;;;;;65.87;61.13;;;;;;;1.74;100.00;103287.66;4929834;29;20980;-44
2024/01/28 01:34:22;;;;;;;68.03;63.17;;;;;;;1.74;100.00;103286.81;4935551;29;20496;-43
2024/01/28 01:36:50;;;;;;;66.03;60.40;;;;;;;1.75;100.00;103299.91;4935729;29;20439;-44
2024/01/28 01:39:19;;;;;;;69.23;63.57;;;;;;;1.76;100.00;103288.44;4934752;28;20471;-41
2024/01/28 01:41:47;;;;;;;68.87;63.63;;;;;;;1.76;100.00;103283.19;4934893;29;20441;-44
2024/01/28 01:44:15;;;;;;;67.43;62.70;;;;;;;1.75;100.00;103280.63;4934305;29;20441;-40
2024/01/28 01:46:46;;;;;;;68.03;63.03;;;;;;;1.73;100.00;103280.72;4935416;29;20555;-42
2024/01/28 01:49:15;;;;;;;66.03;60.90;;;;;;;1.74;100.00;103282.41;4934418;28;20471;-42
2024/01/28 01:51:44;;;;;;;68.57;63.30;;;;;;;1.74;100.00;103281.53;4934179;29;20500;-42
2024/01/28 01:54:12;;;;;;;68.93;63.00;;;;;;;1.74;100.00;103282.41;4928291;29;20479;-41
2024/01/28 01:56:40;;;;;;;67.17;61.87;;;;;;;1.74;100.00;103292.91;4935319;29;20452;-40
2024/01/28 01:59:09;;;;;;;65.57;60.70;;;;;;;1.76;100.00;103287.59;4922080;28;20488;-41
2024/01/28 02:01:39;;;;;;;73.10;66.87;;;;;;;1.74;100.00;103282.41;4934476;29;20479;-43
2024/01/28 02:04:08;;;;;;;67.80;62.50;;;;;;;1.73;100.00;103278.09;4934716;29;20508;-41
2024/01/28 02:06:36;;;;;;;67.37;62.20;;;;;;;1.74;100.00;103265.75;4928383;29;20854;-42
2024/01/28 02:09:05;;;;;;;69.77;64.83;;;;;;;1.74;100.00;103253.47;4933659;28;21058;-42
2024/01/28 02:11:33;;;;;;;68.47;63.73;;;;;;;1.74;100.00;103247.34;4934375;29;20844;-40
2024/01/28 02:14:01;;;;;;;65.27;59.83;;;;;;;1.74;100.00;103253.47;4934873;29;20504;-39
2024/01/28 02:16:28;;;;;;;66.40;61.17;;;;;;;1.74;100.00;103261.34;4935223;29;20484;-42
2024/01/28 02:18:56;;;;;;;69.57;63.70;;;;;;;1.74;100.00;103263.97;4933804;28;20816;-41
2024/01/28 02:21:26;;;;;;;67.87;62.43;;;;;;;1.74;100.00;103261.34;4933842;29;20492;-41
2024/01/28 02:23:55;;;;;;;65.93;61.07;;;;;;;1.73;100.00;103270.19;4934084;29;20532;-42
2024/01/28 02:26:23;;;;;;;71.10;65.20;;;;;;;1.71;100.00;103260.66;4934281;29;20472;-42
2024/01/28 02:28:50;;;;;;;69.30;64.43;;;;;;;1.67;100.00;103257.34;4929239;28;21267;-40
2024/01/28 02:31:18;;;;;;;67.37;62.27;;;;;;;1.65;100.00;103253.94;4933626;29;20495;-43
2024/01/28 02:33:46;;;;;;;69.57;64.40;;;;;;;1.60;100.00;103259.44;4933638;29;20980;-41
2024/01/28 02:36:14;;;;;;;67.80;62.50;;;;;;;1.59;100.00;103260.34;4934016;29;20484;-40
2024/01/28 02:38:42;;;;;;;67.50;62.00;;;;;;;1.57;100.00;103256.97;4933264;28;20464;-40
2024/01/28 02:41:11;;;;;;;68.47;62.67;;;;;;;1.56;100.00;103255.25;4926604;29;20467;-40
2024/01/28 02:43:39;;;;;;;68.83;62.83;;;;;;;1.56;100.00;103255.25;4934074;29;20535;-40
2024/01/28 02:46:07;;;;;;;70.27;65.23;;;;;;;1.56;100.00;103250.00;4934227;29;20590;-42
2024/01/28 02:48:35;;;;;;;66.40;61.90;;;;;;;1.58;100.00;103257.81;4932698;28;20484;-40
2024/01/28 02:51:03;;;;;;;68.90;63.30;;;;;;;1.59;100.00;103256.88;4933121;29;20976;-40
2024/01/28 02:53:30;;;;;;;71.00;64.63;;;;;;;1.58;100.00;103261.28;4933500;29;20463;-40
2024/01/28 02:56:00;;;;;;;69.90;64.67;;;;;;;1.59;100.00;103254.25;4924940;29;20480;-40
2024/01/28 02:58:29;;;;;;;69.70;64.07;;;;;;;1.59;100.00;103248.97;4926056;29;20491;-40
2024/01/28 03:00:57;;;;;;;66.47;60.83;;;;;;;1.59;100.00;103243.72;4932934;29;20987;-42
2024/01/28 03:03:26;;;;;;;67.97;62.37;;;;;;;1.57;100.00;103246.44;4933338;29;20461;-42
2024/01/28 03:05:54;;;;;;;66.00;60.47;;;;;;;1.56;100.00;103249.13;4933530;29;21073;-40
2024/01/28 03:08:22;;;;;;;67.97;61.90;;;;;;;1.54;100.00;103245.75;4933274;29;20836;-41
2024/01/28 03:10:50;;;;;;;69.43;63.87;;;;;;;1.54;100.00;103238.72;4933479;28;20461;-41
2024/01/28 03:13:18;;;;;;;64.10;58.67;;;;;;;1.53;100.00;103244.03;4933151;29;20441;-41
2024/01/28 03:15:50;;;;;;;68.00;63.00;;;;;;;1.51;100.00;103232.75;4934075;29;20443;-41
2024/01/28 03:18:18;;;;;;;66.57;60.83;;;;;;;1.48;100.00;103235.53;4933243;29;20504;-41
2024/01/28 03:20:46;;;;;;;66.00;60.77;;;;;;;1.46;100.00;103237.41;4933256;28;20523;-42
2024/01/28 03:23:14;;;;;;;66.47;60.03;;;;;;;1.44;100.00;103234.81;4929589;29;20532;-43
2024/01/28 03:25:43;;;;;;;66.17;60.87;;;;;;;1.42;100.00;103231.44;4933498;29;20482;-41
2024/01/28 03:28:11;;;;;;;67.20;61.77;;;;;;;1.43;100.00;103238.41;4930227;29;20549;-43
2024/01/28 03:30:38;;;;;;;70.93;65.00;;;;;;;1.41;100.00;103240.25;4921437;28;20495;-42
2024/01/28 03:33:07;;;;;;;67.23;61.53;;;;;;;1.36;100.00;103246.66;4928127;29;20441;-42
2024/01/28 03:35:37;;;;;;;65.87;59.80;;;;;;;1.33;100.00;103236.28;4933875;29;20516;-39
2024/01/28 03:38:06;;;;;;;71.87;62.47;;;;;;;1.30;100.00;103233.81;4932742;29;20865;-41
2024/01/28 03:40:34;;;;;;;71.83;64.70;;;;;;;1.24;100.00;103231.50;4933014;28;20453;-41
2024/01/28 03:43:02;;;;;;;67.33;61.17;;;;;;;1.18;100.00;103234.44;4932858;29;20425;-40
2024/01/28 03:45:30;;;;;;;87.20;80.00;;;;;;;1.12;100.00;103243.47;4932652;29;20437;-41
2024/01/28 03:47:57;;;;;;;89.67;82.57;;;;;;;1.06;100.00;103238.50;4932959;29;20460;-40
2024/01/28 03:50:27;;;;;;;86.23;80.13;;;;;;;1.01;100.00;103238.75;4932532;28;20495;-40
2024/01/28 03:52:55;;;;;;;90.13;83.60;;;;;;;0.96;100.00;103235.47;4932137;29;20444;-40
2024/01/28 03:55:23;;;;;;;90.70;84.70;;;;;;;0.91;100.00;103232.22;4933089;29;20445;-41
2024/01/28 03:57:51;;;;;;;86.97;80.57;;;;;;;0.87;100.00;103233.28;4932998;29;20573;-39
2024/01/28 04:00:19;;;;;;;90.07;84.57;;;;;;;0.83;100.00;103230.88;4932351;28;20487;-40
2024/01/28 04:02:47;;;;;;;94.93;88.40;;;;;;;0.79;100.00;103237.19;4933601;29;20447;-43
2024/01/28 04:05:15;;;;;;;94.70;88.10;;;;;;;0.76;100.00;103232.94;4936785;29;20451;-41
2024/01/28 04:07:44;;;;;;;95.53;89.53;;;;;;;0.75;100.00;103238.25;4936816;29;20492;-41
2024/01/28 04:10:15;;;;;;;99.87;93.23;;;;;;;0.71;100.00;103228.84;4936000;28;20515;-41
2024/01/28 04:12:43;;;;;;;96.17;89.93;;;;;;;0.68;100.00;103237.72;4936771;29;20488;-41
2024/01/28 04:15:11;;;;;;;94.30;88.20;;;;;;;0.67;100.00;103235.16;4936845;29;20436;-40
2024/01/28 04:17:39;;;;;;;99.33;93.10;;;;;;;0.64;100.00;103233.53;4937449;29;20891;-42
2024/01/28 04:20:08;;;;;;;108.33;101.80;;;;;;;0.63;100.00;103233.63;4933156;28;20910;-40
2024/01/28 04:22:36;;;;;;;102.87;96.60;;;;;;;0.61;100.00;103236.28;4926953;29;20464;-42
2024/01/28 04:25:06;;;;;;;104.13;96.67;;;;;;;0.60;100.00;103233.75;4936186;29;20447;-42
2024/01/28 04:27:34;;;;;;;103.30;96.00;;;;;;;0.61;100.00;103245.94;4936305;29;20641;-41
2024/01/28 04:30:02;;;;;;;86.33;79.60;;;;;;;0.61;100.00;103235.44;4935770;28;20472;-40
2024/01/28 04:32:30;;;;;;;90.40;84.17;;;;;;;0.62;100.00;103237.16;4936080;29;20440;-40
2024/01/28 04:34:58;;;;;;;89.40;83.23;;;;;;;0.60;100.00;103231.97;4936571;29;20436;-39
2024/01/28 04:37:27;;;;;;;86.97;80.80;;;;;;;0.60;100.00;103229.31;4935619;29;20445;-45
2024/01/28 04:39:55;;;;;;;90.23;84.20;;;;;;;0.57;100.00;103214.56;4935637;28;20475;-42
2024/01/28 04:42:24;;;;;;;84.53;78.17;;;;;;;0.58;100.00;103220.69;4935486;29;20471;-41
2024/01/28 04:44:52;;;;;;;94.17;86.73;;;;;;;0.57;100.00;103211.09;4936111;29;20544;-40
2024/01/28 04:47:20;;;;;;;91.90;85.80;;;;;;;0.55;100.00;103219.06;4936504;29;20559;-41
2024/01/28 04:49:48;;;;;;;88.97;82.53;;;;;;;0.59;100.00;103226.78;4935896;28;20897;-40
2024/01/28 04:52:16;;;;;;;88.63;81.17;;;;;;;0.59;100.00;103226.78;4935438;29;20459;-40
2024/01/28 04:54:44;;;;;;;91.33;84.67;;;;;;;0.59;100.00;103224.16;4935413;29;20546;-40
2024/01/28 04:57:12;;;;;;;86.90;80.57;;;;;;;0.57;100.00;103228.66;4935547;29;20503;-41
2024/01/28 04:59:41;;;;;;;86.27;79.97;;;;;;;0.55;100.00;103215.56;4935468;28;20872;-40
2024/01/28 05:02:09;;;;;;;98.30;91.23;;;;;;;0.55;100.00;103219.06;4934800;29;20465;-40
2024/01/28 05:04:36;;;;;;;99.73;92.73;;;;;;;0.54;100.00;103216.50;4935135;29;20435;-43
2024/01/28 05:07:05;;;;;;;94.73;88.17;;;;;;;0.53;100.00;103220.06;4935463;29;20539;-40
2024/01/28 05:09:34;;;;;;;94.30;87.87;;;;;;;0.50;100.00;103213.19;4934798;29;20465;-41
2024/01/28 05:12:01;;;;;;;94.70;88.13;;;;;;;0.51;100.00;103211.38;4935249;29;20444;-42
2024/01/28 05:14:29;;;;;;;94.97;87.67;;;;;;;0.50;100.00;103213.19;4935457;29;20479;-45
2024/01/28 05:17:00;;;;;;;89.87;83.57;;;;;;;0.50;100.00;103215.81;4936002;29;20511;-42
2024/01/28 05:19:28;;;;;;;89.27;83.53;;;;;;;0.50;100.00;103221.06;4931971;28;20468;-44
2024/01/28 05:21:56;;;;;;;93.83;85.97;;;;;;;0.50;100.00;103207.06;4934649;29;20469;-41
2024/01/28 05:24:24;;;;;;;93.63;86.87;;;;;;;0.48;100.00;103207.13;4934951;29;20433;-41
2024/01/28 05:26:52;;;;;;;87.50;81.70;;;;;;;0.48;100.00;103204.50;4935822;29;20907;-42
2024/01/28 05:29:20;;;;;;;91.37;84.33;;;;;;;0.47;100.00;103187.06;4934955;28;20506;-42
2024/01/28 05:31:49;;;;;;;92.57;85.83;;;;;;;0.47;100.00;103181.81;4934417;29;20437;-41
2024/01/28 05:34:18;;;;;;;95.50;89.47;;;;;;;0.48;100.00;103185.28;4934955;29;21156;-41
2024/01/28 05:36:49;;;;;;;93.47;87.07;;;;;;;0.50;100.00;103181.69;4936073;29;20488;-41
2024/01/28 05:39:17;;;;;;;101.27;93.07;;;;;;;0.51;100.00;103187.75;4934662;28;20472;-41
2024/01/28 05:41:45;;;;;;;103.87;96.20;;;;;;;0.52;100.00;103190.31;4933471;29;20447;-43
2024/01/28 05:44:16;;;;;;;92.53;85.30;;;;;;;0.53;100.00;103189.41;4930035;29;20437;-41
2024/01/28 05:46:44;;;;;;;91.67;85.13;;;;;;;0.55;100.00;103191.94;4934874;29;20437;-43
2024/01/28 05:49:12;;;;;;;94.80;88.40;;;;;;;0.57;100.00;103191.91;4933452;28;20460;-41
2024/01/28 05:51:41;;;;;;;91.80;85.33;;;;;;;0.57;100.00;103178.75;4934701;29;21023;-42
2024/01/28 05:54:10;;;;;;;89.73;83.43;;;;;;;0.57;100.00;103184.84;4935003;29;20528;-41
2024/01/28 05:56:38;;;;;;;92.17;85.67;;;;;;;0.57;100.00;103193.56;4929832;29;20446;-41
2024/01/28 05:59:06;;;;;;;92.23;86.47;;;;;;;0.55;100.00;103190.19;4924840;28;20515;-44
2024/01/28 06:01:33;;;;;;;96.60;88.97;;;;;;;0.56;100.00;103196.28;4934609;29;20437;-41
2024/01/28 06:04:02;;;;;;;93.10;87.20;;;;;;;0.55;100.00;103197.19;4934430;29;20436;-43
2024/01/28 06:06:30;;;;;;;93.60;87.40;;;;;;;0.54;100.00;103187.59;4930500;29;20468;-41
2024/01/28 06:08:59;;;;;;;90.80;85.20;;;;;;;0.52;100.00;103186.84;4923192;28;20876;-42
2024/01/28 06:11:28;;;;;;;84.10;77.90;;;;;;;0.47;100.00;103183.59;4922692;29;20863;-42
2024/01/28 06:13:56;;;;;;;85.60;79.10;;;;;;;0.44;100.00;103181.97;4928493;29;20445;-42
2024/01/28 06:16:24;;;;;;;92.80;86.70;;;;;;;0.44;100.00;103176.72;4926482;29;20440;-43
2024/01/28 06:18:51;;;;;;;84.70;78.27;;;;;;;0.40;100.00;103177.78;4926190;29;20452;-42
2024/01/28 06:21:19;;;;;;;93.00;86.37;;;;;;;0.38;100.00;103179.63;4933209;29;20436;-42
2024/01/28 06:23:47;;;;;;;94.63;87.47;;;;;;;0.36;100.00;103194.56;4933629;29;20916;-43
2024/01/28 06:26:18;;;;;;;89.20;82.93;;;;;;;0.33;100.00;103196.50;4933012;29;20472;-41
2024/01/28 06:28:46;;;;;;;95.73;88.60;;;;;;;0.30;100.00;103200.09;4933780;28;20480;-40
2024/01/28 06:31:14;;;;;;;90.47;83.37;;;;;;;0.28;100.00;103190.59;4933177;29;20435;-43
2024/01/28 06:33:42;;;;;;;91.37;84.87;;;;;;;0.26;100.00;103184.59;4933757;29;20527;-41
2024/01/28 06:36:10;;;;;;;91.87;85.50;;;;;;;0.24;100.00;103189.88;4934143;29;20488;-40
2024/01/28 06:38:38;;;;;;;87.93;81.90;;;;;;;0.22;100.00;103194.38;4932657;28;20921;-41
2024/01/28 06:41:05;;;;;;;91.13;84.30;;;;;;;0.21;100.00;103187.41;4933329;29;20425;-41
2024/01/28 06:43:35;;;;;;;92.40;85.70;;;;;;;0.20;100.00;103182.25;4928707;29;20429;-41
2024/01/28 06:46:02;;;;;;;84.50;77.87;;;;;;;0.21;100.00;103183.97;4933952;29;20513;-41
2024/01/28 06:48:31;;;;;;;88.40;81.40;;;;;;;0.21;100.00;103179.53;4933318;29;20484;-42
2024/01/28 06:50:59;;;;;;;90.10;82.33;;;;;;;0.19;100.00;103186.63;4932962;28;21029;-41
2024/01/28 06:53:27;;;;;;;87.73;80.90;;;;;;;0.20;100.00;103192.75;4937454;29;20522;-41
2024/01/28 06:55:54;;;;;;;85.57;78.90;;;;;;;0.20;100.00;103188.34;4934238;29;20825;-43
2024/01/28 06:58:23;;;;;;;85.77;78.73;;;;;;;0.22;100.00;103191.75;4923687;29;20460;-41
2024/01/28 07:00:52;;;;;;;86.33;79.90;;;;;;;0.23;100.00;103192.59;4931680;28;20464;-42
2024/01/28 07:03:20;;;;;;;88.03;80.70;;;;;;;0.22;100.00;103196.13;4931788;29;20471;-42
2024/01/28 07:05:48;;;;;;;89.73;82.70;;;;;;;0.21;100.00;103186.59;4932991;29;20777;-41
2024/01/28 07:08:16;;;;;;;84.50;78.10;;;;;;;0.23;100.00;103189.97;4933052;29;20531;-41
2024/01/28 07:10:44;;;;;;;84.00;77.37;;;;;;;0.24;100.00;103183.81;4919424;28;20576;-42
2024/01/28 07:13:12;;;;;;;87.33;80.33;;;;;;;0.26;100.00;103192.47;4932840;29;20496;-41
2024/01/28 07:15:41;;;;;;;83.30;76.90;;;;;;;0.29;100.00;103201.03;4932669;29;20447;-41
2024/01/28 07:18:10;;;;;;;84.53;78.03;;;;;;;0.31;100.00;103203.59;4933280;29;20456;-43
2024/01/28 07:20:38;;;;;;;81.80;75.13;;;;;;;0.34;100.00;103201.69;4932727;28;20464;-44
2024/01/28 07:23:06;;;;;;;80.50;73.83;;;;;;;0.37;100.00;103201.53;4933024;29;20433;-43
2024/01/28 07:25:34;;;;;;;82.27;74.17;;;;;;;0.40;100.00;103206.66;4933336;29;20479;-42
2024/01/28 07:28:03;;;;;;;82.53;75.93;;;;;;;0.43;100.00;103208.28;4924833;29;20485;-41
2024/01/28 07:30:31;;;;;;;80.40;73.00;;;;;;;0.45;100.00;103201.16;4931146;28;20564;-44
2024/01/28 07:32:59;;;;;;;74.67;67.80;;;;;;;0.49;100.00;103200.09;4932354;29;20429;-41
2024/01/28 07:35:29;;;;;;;77.43;71.10;;;;;;;0.50;100.00;103196.56;4933335;29;20440;-41
2024/01/28 07:37:57;;;;;;;79.83;72.97;;;;;;;0.53;100.00;103194.66;4924709;29;20459;-41
2024/01/28 07:40:24;;;;;;;77.20;70.70;;;;;;;0.55;100.00;103189.31;4930798;28;20487;-42
2024/01/28 07:42:55;;;;;;;75.57;68.77;;;;;;;0.59;100.00;103188.25;4931821;29;21164;-43
2024/01/28 07:45:23;;;;;;;75.60;68.30;;;;;;;0.62;100.00;103182.88;4928817;29;20433;-41
2024/01/28 07:47:50;;;;;;;74.87;68.70;;;;;;;0.64;100.00;103185.41;4917912;29;20465;-43
2024/01/28 07:50:20;;;;;;;76.10;70.23;;;;;;;0.68;100.00;103190.44;4931748;28;20492;-43
2024/01/28 07:52:50;;;;;;;72.87;66.90;;;;;;;0.72;100.00;103197.25;4931620;29;20523;-42
2024/01/28 07:55:18;;;;;;;67.80;62.40;;;;;;;0.77;100.00;103197.88;4934341;29;20936;-43
2024/01/28 07:57:46;;;;;;;65.77;59.87;;;;;;;0.81;100.00;103207.31;4926816;29;20475;-41
2024/01/28 08:00:14;;;;;;;65.53;59.63;;;;;;;0.85;100.00;103203.63;4930046;28;21004;-41
2024/01/28 08:02:42;;;;;;;64.57;58.57;;;;;;;0.89;100.00;103188.56;4932241;29;20436;-41
2024/01/28 08:05:10;;;;;;;65.23;58.87;;;;;;;0.93;100.00;103185.69;4929105;29;21041;-41
2024/01/28 08:07:40;;;;;;;64.90;59.10;;;;;;;0.98;100.00;103172.34;4931687;29;20541;-43
2024/01/28 08:10:10;;;;;;;63.57;57.97;;;;;;;1.02;100.00;103171.25;4929690;29;20889;-43
2024/01/28 08:12:38;;;;;;;64.50;59.20;;;;;;;1.05;100.00;103165.84;4931948;29;20432;-46
2024/01/28 08:15:06;;;;;;;62.60;56.80;;;;;;;1.11;100.00;103157.66;4932917;29;20939;-44
2024/01/28 08:17:35;;;;;;;58.17;53.57;;;;;;;1.15;100.00;103163.63;4933359;29;20555;-42
2024/01/28 08:20:04;;;;;;;61.67;55.70;;;;;;;1.20;100.00;103162.47;4931739;28;20464;-43
2024/01/28 08:22:31;;;;;;;58.90;53.37;;;;;;;1.25;100.00;103152.59;4962010;23;20483;-34
2024/01/28 08:24:59;;;;;;;67.93;55.63;;;;;;;1.28;100.00;103160.31;4951438;28;20440;-34
2024/01/28 08:27:30;;;;;;;56.43;51.50;;;;;;;1.37;100.00;103156.34;4944721;28;20490;-38
2024/01/28 08:29:58;;;;;;;59.33;53.87;;;;;;;1.44;100.00;103165.63;4950202;28;20468;-34
2024/01/28 08:32:25;;;;;;;57.47;52.47;;;;;;;1.50;100.00;103165.28;4940890;28;20499;-35
2024/01/28 08:34:53;;;;;;;58.70;53.70;;;;;;;1.58;100.00;103163.16;4951197;28;20490;-35
2024/01/28 08:37:22;;;;;;;57.53;52.07;;;;;;;1.66;100.00;103163.59;4950384;28;20448;-35
2024/01/28 08:39:50;;;;;;;58.67;53.30;;;;;;;1.77;100.00;103158.59;4948658;28;20463;-37
2024/01/28 08:42:19;;;;;;;73.93;53.73;;;;;;;1.86;100.00;103162.53;4953280;28;20487;-34
2024/01/28 08:44:48;;;;;;;54.67;49.50;;;;;;;1.94;100.00;103157.72;4960525;28;20442;-34
2024/01/28 08:47:16;;;;;;;53.50;48.57;;;;;;;2.05;100.00;103147.47;4951740;28;20837;-34
2024/01/28 08:49:44;;;;;;;53.03;48.67;;;;;;;2.11;100.00;103147.97;4954764;28;20474;-34
2024/01/28 08:52:12;;;;;;;54.27;49.80;;;;;;;2.18;100.00;103144.06;4954029;28;20470;-35
2024/01/28 08:54:40;;;;;;;55.03;49.93;;;;;;;2.25;100.00;103144.56;4960148;28;20450;-34
2024/01/28 08:57:07;;;;;;;51.83;47.30;;;;;;;2.37;100.00;103143.91;4955689;28;20439;-37
2024/01/28 08:59:35;;;;;;;54.10;49.37;;;;;;;2.47;100.00;103145.09;4957837;28;20522;-34
2024/01/28 09:02:04;;;;;;;53.63;48.63;;;;;;;2.56;100.00;103146.38;4953243;28;20438;-34
2024/01/28 09:04:35;;;;;;;52.63;48.00;;;;;;;2.65;100.00;103143.22;4954306;28;20502;-34
2024/01/28 09:07:02;;;;;;;51.27;47.17;;;;;;;2.72;100.00;103140.13;4966158;28;20855;-34
2024/01/28 09:09:30;;;;;;;51.13;46.20;;;;;;;2.81;100.00;103145.84;4945775;28;20496;-35
2024/01/28 09:11:58;;;;;;;50.80;46.80;;;;;;;2.88;100.00;103145.38;4955076;28;20490;-35
2024/01/28 09:14:26;;;;;;;52.00;46.77;;;;;;;2.98;100.00;103146.56;4955083;28;20835;-36
2024/01/28 09:16:54;;;;;;;50.07;45.73;;;;;;;3.08;100.00;103155.59;4953926;28;20530;-36
2024/01/28 09:19:23;;;;;;;49.87;46.03;;;;;;;3.18;100.00;103143.59;4952691;28;20499;-34
2024/01/28 09:21:51;;;;;;;49.93;45.80;;;;;;;3.29;100.00;103138.53;4953123;28;20484;-35
2024/01/28 09:24:19;;;;;;;50.70;46.40;;;;;;;3.38;100.00;103145.03;4953092;28;20450;-35
2024/01/28 09:26:47;;;;;;;53.07;48.70;;;;;;;3.43;100.00;103145.63;4962651;28;21014;-36
2024/01/28 09:29:15;;;;;;;52.90;48.50;;;;;;;3.55;100.00;103146.69;4954110;28;20479;-34
2024/01/28 09:31:45;;;;;;;50.23;46.47;;;;;;;3.62;100.00;103148.84;4964570;28;20542;-36
2024/01/28 09:34:13;;;;;;;49.13;45.43;;;;;;;3.76;100.00;103148.00;4950166;28;20440;-38
2024/01/28 09:36:42;;;;;;;50.27;46.00;;;;;;;3.85;100.00;103140.34;4955903;28;20445;-34
2024/01/28 09:39:11;;;;;;;50.57;46.10;;;;;;;3.95;100.00;103142.41;4952914;28;20455;-35
2024/01/28 09:41:44;;;;;;;48.97;45.13;;;;;;;4.06;100.00;103143.44;4951883;28;20891;-34
2024/01/28 09:44:11;;;;;;;49.70;45.60;;;;;;;4.13;100.00;103131.56;4955648;28;20574;-34
2024/01/28 09:46:39;;;;;;;49.27;45.47;;;;;;;4.20;100.00;103130.25;4952587;28;20531;-36
2024/01/28 09:49:11;;;;;;;49.43;45.33;;;;;;;4.25;100.00;103130.78;4953414;28;20901;-37
2024/01/28 09:51:39;;;;;;;50.50;46.63;;;;;;;4.25;100.00;103129.94;4953777;28;20452;-36
2024/01/28 09:54:12;;;;;;;52.27;47.53;;;;;;;4.36;100.00;103132.75;4950310;28;20549;-34
2024/01/28 09:56:42;;;;;;;48.20;43.90;;;;;;;4.39;100.00;103130.75;4951638;28;20515;-38
2024/01/28 09:59:15;;;;;;;47.33;43.53;;;;;;;4.45;100.00;103133.00;4957928;28;20927;-35
2024/01/28 10:01:43;;;;;;;47.50;43.87;;;;;;;4.48;100.00;103129.31;4953305;28;20491;-35
2024/01/28 10:04:11;;;;;;;47.40;43.77;;;;;;;4.59;100.00;103134.75;4953024;28;20456;-36
2024/01/28 10:06:39;;;;;;;49.40;45.87;;;;;;;4.65;100.00;103126.44;4953719;28;20444;-35
2024/01/28 10:09:09;;;;;;;46.63;43.07;;;;;;;4.77;100.00;103132.72;4953033;28;20460;-34
2024/01/28 10:11:37;;;;;;;47.80;44.23;;;;;;;4.74;100.00;103124.97;4953522;28;21642;-35
2024/01/28 10:14:05;;;;;;;47.93;43.83;;;;;;;4.85;100.00;103123.31;4958870;28;20487;-36
2024/01/28 10:16:35;;;;;;;43.73;40.63;;;;;;;4.92;100.00;103127.25;4956382;28;20447;-37
2024/01/28 10:19:03;;;;;;;48.40;43.83;;;;;;;5.01;100.00;103118.72;4952959;28;20491;-36
2024/01/28 10:21:31;;;;;;;46.80;43.37;;;;;;;5.23;100.00;103126.03;4952756;28;20442;-35
2024/01/28 10:23:59;;;;;;;45.13;41.77;;;;;;;5.32;100.00;103119.25;4952577;28;20476;-37
2024/01/28 10:26:28;;;;;;;44.33;41.23;;;;;;;5.38;100.00;103110.91;4949194;28;20450;-35
2024/01/28 10:28:56;;;;;;;47.80;44.57;;;;;;;5.49;100.00;103098.66;4952130;28;20551;-39
2024/01/28 10:31:24;;;;;;;48.67;44.50;;;;;;;5.41;100.00;103108.06;4952674;28;20482;-35
2024/01/28 10:33:52;;;;;;;49.67;45.80;;;;;;;5.44;100.00;103095.47;4952727;28;20463;-38
2024/01/28 10:36:20;;;;;;;50.80;46.50;;;;;;;5.42;100.00;103094.72;4953192;28;20436;-36
2024/01/28 10:38:48;;;;;;;48.17;44.40;;;;;;;5.50;100.00;103092.38;4951714;28;20448;-35
2024/01/28 10:41:18;;;;;;;46.53;43.53;;;;;;;5.63;100.00;103088.88;4952547;28;20444;-37
2024/01/28 10:43:56;;;;;;;48.30;44.07;;;;;;;5.66;100.00;103091.31;4951839;28;20478;-39
2024/01/28 10:46:32;;;;;;;45.67;41.90;;;;;;;5.69;100.00;103094.59;4951501;28;20476;-39
2024/01/28 10:49:04;;;;;;;47.63;43.10;;;;;;;5.72;100.00;103099.69;4952792;28;20447;-35
2024/01/28 10:51:35;;;;;;;48.07;44.07;;;;;;;5.72;100.00;103093.53;4948922;28;21082;-34
2024/01/28 10:54:04;;;;;;;48.77;44.97;;;;;;;5.79;100.00;103086.88;4952673;28;20557;-36
2024/01/28 10:56:32;;;;;;;45.30;42.47;;;;;;;5.77;100.00;103089.59;4961340;28;20440;-37
2024/01/28 10:59:01;;;;;;;48.43;44.83;;;;;;;5.82;100.00;103081.34;4949389;28;20551;-36
2024/01/28 11:01:31;;;;;;;47.27;43.60;;;;;;;5.83;100.00;103065.34;4959065;28;20440;-37
2024/01/28 11:04:00;;;;;;;45.67;42.47;;;;;;;5.91;100.00;103052.44;4958931;28;20476;-35
2024/01/28 11:06:30;;;;;;;44.43;41.50;;;;;;;5.92;100.00;103058.56;4960918;28;20529;-36
2024/01/28 11:08:58;;;;;;;46.10;42.20;;;;;;;5.95;100.00;103053.06;4943810;28;20834;-35
2024/01/28 11:11:27;;;;;;;44.63;41.60;;;;;;;5.99;100.00;103047.44;4947898;28;21243;-34
2024/01/28 11:13:56;;;;;;;46.23;42.70;;;;;;;6.11;100.00;103051.84;4948635;28;20824;-37